sensor_id;sensor_type;location;lat;lon;timestamp;temperature;humidity
52125;DHT22;38119;52.710;6.398;2022-09-21T00:00:22;8.70;99.90
52125;DHT22;38119;52.710;6.398;2022-09-21T00:02:48;8.70;99.90
52125;DHT22;38119;52.710;6.398;2022-09-21T00:05:14;8.60;99.90
52125;DHT22;38119;52.710;6.398;2022-09-21T00:07:40;8.60;99.90
52125;DHT22;38119;52.710;6.398;2022-09-21T00:10:06;8.60;99.90
52125;DHT22;38119;52.710;6.398;2022-09-21T00:12:32;8.50;99.90
52125;DHT22;38119;52.710;6.398;2022-09-21T00:14:57;8.50;99.90
52125;DHT22;38119;52.710;6.398;2022-09-21T00:17:23;8.50;99.90
52125;DHT22;38119;52.710;6.398;2022-09-21T00:19:49;8.50;99.90
52125;DHT22;38119;52.710;6.398;2022-09-21T00:22:14;8.50;99.90
52125;DHT22;38119;52.710;6.398;2022-09-21T00:24:40;8.40;99.90
52125;DHT22;38119;52.710;6.398;2022-09-21T00:27:05;8.40;99.90
52125;DHT22;38119;52.710;6.398;2022-09-21T00:29:31;8.40;99.90
52125;DHT22;38119;52.710;6.398;2022-09-21T00:31:57;8.40;99.90
52125;DHT22;38119;52.710;6.398;2022-09-21T00:34:22;8.40;99.90
52125;DHT22;38119;52.710;6.398;2022-09-21T00:36:49;8.40;99.90
52125;DHT22;38119;52.710;6.398;2022-09-21T00:39:14;8.40;99.90
52125;DHT22;38119;52.710;6.398;2022-09-21T00:41:40;8.30;99.90
52125;DHT22;38119;52.710;6.398;2022-09-21T00:46:44;8.30;99.90
52125;DHT22;38119;52.710;6.398;2022-09-21T00:49:11;8.30;99.90
52125;DHT22;38119;52.710;6.398;2022-09-21T00:51:38;8.30;99.90
52125;DHT22;38119;52.710;6.398;2022-09-21T00:54:10;8.30;99.90
52125;DHT22;38119;52.710;6.398;2022-09-21T00:56:37;8.20;99.90
52125;DHT22;38119;52.710;6.398;2022-09-21T00:59:04;8.20;99.90
52125;DHT22;38119;52.710;6.398;2022-09-21T01:01:31;8.20;99.90
52125;DHT22;38119;52.710;6.398;2022-09-21T01:03:57;8.10;99.90
52125;DHT22;38119;52.710;6.398;2022-09-21T01:06:23;8.10;99.90
52125;DHT22;38119;52.710;6.398;2022-09-21T01:08:52;8.10;99.90
52125;DHT22;38119;52.710;6.398;2022-09-21T01:11:37;8.10;99.90
52125;DHT22;38119;52.710;6.398;2022-09-21T01:22:47;8.10;99.90
52125;DHT22;38119;52.710;6.398;2022-09-21T01:28:29;8.00;99.90
52125;DHT22;38119;52.710;6.398;2022-09-21T01:31:04;8.00;99.90
52125;DHT22;38119;52.710;6.398;2022-09-21T01:33:37;7.90;99.90
52125;DHT22;38119;52.710;6.398;2022-09-21T01:36:08;8.00;99.90
52125;DHT22;38119;52.710;6.398;2022-09-21T01:39:30;7.90;99.90
52125;DHT22;38119;52.710;6.398;2022-09-21T01:41:49;7.90;99.90
52125;DHT22;38119;52.710;6.398;2022-09-21T01:44:20;7.90;99.90
52125;DHT22;38119;52.710;6.398;2022-09-21T01:46:48;8.30;99.90
52125;DHT22;38119;52.710;6.398;2022-09-21T01:49:18;7.80;99.90
52125;DHT22;38119;52.710;6.398;2022-09-21T01:51:50;7.80;99.90
52125;DHT22;38119;52.710;6.398;2022-09-21T01:54:21;8.00;99.90
52125;DHT22;38119;52.710;6.398;2022-09-21T01:57:13;7.70;99.90
52125;DHT22;38119;52.710;6.398;2022-09-21T01:59:51;7.70;99.90
52125;DHT22;38119;52.710;6.398;2022-09-21T02:02:25;7.70;99.90
52125;DHT22;38119;52.710;6.398;2022-09-21T02:04:51;7.60;99.90
52125;DHT22;38119;52.710;6.398;2022-09-21T02:07:17;7.60;99.90
52125;DHT22;38119;52.710;6.398;2022-09-21T02:09:44;7.60;99.90
52125;DHT22;38119;52.710;6.398;2022-09-21T02:12:12;7.60;99.90
52125;DHT22;38119;52.710;6.398;2022-09-21T02:14:38;7.60;99.90
52125;DHT22;38119;52.710;6.398;2022-09-21T02:17:05;7.50;99.90
52125;DHT22;38119;52.710;6.398;2022-09-21T02:19:52;7.60;99.90
52125;DHT22;38119;52.710;6.398;2022-09-21T02:22:25;7.50;99.90
52125;DHT22;38119;52.710;6.398;2022-09-21T02:25:14;7.50;99.90
52125;DHT22;38119;52.710;6.398;2022-09-21T02:28:00;7.50;99.90
52125;DHT22;38119;52.710;6.398;2022-09-21T02:30:30;7.50;99.90
52125;DHT22;38119;52.710;6.398;2022-09-21T02:33:18;7.50;99.90
52125;DHT22;38119;52.710;6.398;2022-09-21T02:35:54;7.50;99.90
52125;DHT22;38119;52.710;6.398;2022-09-21T02:38:36;7.40;99.90
52125;DHT22;38119;52.710;6.398;2022-09-21T02:43:44;7.40;99.90
52125;DHT22;38119;52.710;6.398;2022-09-21T02:46:24;7.30;99.90
52125;DHT22;38119;52.710;6.398;2022-09-21T02:48:54;7.30;99.90
52125;DHT22;38119;52.710;6.398;2022-09-21T02:51:29;7.30;99.90
52125;DHT22;38119;52.710;6.398;2022-09-21T02:53:58;7.30;99.90
52125;DHT22;38119;52.710;6.398;2022-09-21T02:56:26;7.20;99.90
52125;DHT22;38119;52.710;6.398;2022-09-21T02:58:54;7.20;99.90
52125;DHT22;38119;52.710;6.398;2022-09-21T03:01:22;7.20;99.90
52125;DHT22;38119;52.710;6.398;2022-09-21T03:03:48;7.20;99.90
52125;DHT22;38119;52.710;6.398;2022-09-21T03:06:14;7.10;99.90
52125;DHT22;38119;52.710;6.398;2022-09-21T03:08:40;7.10;99.90
52125;DHT22;38119;52.710;6.398;2022-09-21T03:11:06;7.10;99.90
52125;DHT22;38119;52.710;6.398;2022-09-21T03:13:32;7.20;99.90
52125;DHT22;38119;52.710;6.398;2022-09-21T03:16:03;7.10;99.90
52125;DHT22;38119;52.710;6.398;2022-09-21T03:18:29;7.10;99.90
52125;DHT22;38119;52.710;6.398;2022-09-21T03:20:55;6.70;99.90
52125;DHT22;38119;52.710;6.398;2022-09-21T03:23:21;7.10;99.90
52125;DHT22;38119;52.710;6.398;2022-09-21T03:25:47;7.10;99.90
52125;DHT22;38119;52.710;6.398;2022-09-21T03:28:13;7.10;99.90
52125;DHT22;38119;52.710;6.398;2022-09-21T03:30:39;7.10;99.90
52125;DHT22;38119;52.710;6.398;2022-09-21T03:33:05;7.20;99.90
52125;DHT22;38119;52.710;6.398;2022-09-21T03:35:31;7.10;99.90
52125;DHT22;38119;52.710;6.398;2022-09-21T03:38:00;7.10;99.90
52125;DHT22;38119;52.710;6.398;2022-09-21T03:40:26;7.00;99.90
52125;DHT22;38119;52.710;6.398;2022-09-21T03:42:53;7.00;99.90
52125;DHT22;38119;52.710;6.398;2022-09-21T03:45:19;7.00;99.90
52125;DHT22;38119;52.710;6.398;2022-09-21T03:47:46;7.00;99.90
52125;DHT22;38119;52.710;6.398;2022-09-21T03:50:12;6.90;99.90
52125;DHT22;38119;52.710;6.398;2022-09-21T03:52:38;6.90;99.90
52125;DHT22;38119;52.710;6.398;2022-09-21T03:55:05;6.90;99.90
52125;DHT22;38119;52.710;6.398;2022-09-21T03:57:35;6.90;99.90
52125;DHT22;38119;52.710;6.398;2022-09-21T04:00:03;6.90;99.90
52125;DHT22;38119;52.710;6.398;2022-09-21T04:02:29;6.80;99.90
52125;DHT22;38119;52.710;6.398;2022-09-21T04:04:56;6.80;99.90
52125;DHT22;38119;52.710;6.398;2022-09-21T04:07:22;6.80;99.90
52125;DHT22;38119;52.710;6.398;2022-09-21T04:09:48;6.80;99.90
52125;DHT22;38119;52.710;6.398;2022-09-21T04:12:20;6.80;99.90
52125;DHT22;38119;52.710;6.398;2022-09-21T04:14:46;6.80;99.90
52125;DHT22;38119;52.710;6.398;2022-09-21T04:17:12;6.70;99.90
52125;DHT22;38119;52.710;6.398;2022-09-21T04:19:37;6.70;99.90
52125;DHT22;38119;52.710;6.398;2022-09-21T04:22:03;6.70;99.90
52125;DHT22;38119;52.710;6.398;2022-09-21T04:24:28;6.60;99.90
52125;DHT22;38119;52.710;6.398;2022-09-21T04:26:55;6.60;99.90
52125;DHT22;38119;52.710;6.398;2022-09-21T04:29:20;6.60;99.90
52125;DHT22;38119;52.710;6.398;2022-09-21T04:31:46;6.60;99.90
52125;DHT22;38119;52.710;6.398;2022-09-21T04:34:13;6.60;99.90
52125;DHT22;38119;52.710;6.398;2022-09-21T04:36:38;6.60;99.90
52125;DHT22;38119;52.710;6.398;2022-09-21T04:39:04;6.60;99.90
52125;DHT22;38119;52.710;6.398;2022-09-21T04:41:30;6.60;99.90
52125;DHT22;38119;52.710;6.398;2022-09-21T04:43:56;6.60;99.90
52125;DHT22;38119;52.710;6.398;2022-09-21T04:46:21;6.60;99.90
52125;DHT22;38119;52.710;6.398;2022-09-21T04:48:47;6.60;99.90
52125;DHT22;38119;52.710;6.398;2022-09-21T04:51:14;6.60;99.90
52125;DHT22;38119;52.710;6.398;2022-09-21T04:53:41;6.60;99.90
52125;DHT22;38119;52.710;6.398;2022-09-21T04:56:08;6.60;99.90
52125;DHT22;38119;52.710;6.398;2022-09-21T04:58:34;6.50;99.90
52125;DHT22;38119;52.710;6.398;2022-09-21T05:01:00;6.50;99.90
52125;DHT22;38119;52.710;6.398;2022-09-21T05:03:26;6.50;99.90
52125;DHT22;38119;52.710;6.398;2022-09-21T05:05:54;6.50;99.90
52125;DHT22;38119;52.710;6.398;2022-09-21T05:08:21;6.50;99.90
52125;DHT22;38119;52.710;6.398;2022-09-21T05:11:07;6.50;99.90
52125;DHT22;38119;52.710;6.398;2022-09-21T05:13:32;6.40;99.90
52125;DHT22;38119;52.710;6.398;2022-09-21T05:15:58;6.50;99.90
52125;DHT22;38119;52.710;6.398;2022-09-21T05:18:23;6.50;99.90
52125;DHT22;38119;52.710;6.398;2022-09-21T05:20:57;6.50;99.90
52125;DHT22;38119;52.710;6.398;2022-09-21T05:23:24;6.40;99.90
52125;DHT22;38119;52.710;6.398;2022-09-21T05:25:50;6.40;99.90
52125;DHT22;38119;52.710;6.398;2022-09-21T05:28:17;6.40;99.90
52125;DHT22;38119;52.710;6.398;2022-09-21T05:30:44;6.40;99.90
52125;DHT22;38119;52.710;6.398;2022-09-21T05:33:14;6.40;99.90
52125;DHT22;38119;52.710;6.398;2022-09-21T05:35:58;6.40;99.90
52125;DHT22;38119;52.710;6.398;2022-09-21T05:38:26;6.40;99.90
52125;DHT22;38119;52.710;6.398;2022-09-21T05:40:52;6.30;99.90
52125;DHT22;38119;52.710;6.398;2022-09-21T05:43:18;6.30;99.90
52125;DHT22;38119;52.710;6.398;2022-09-21T05:45:46;6.30;99.90
52125;DHT22;38119;52.710;6.398;2022-09-21T05:48:20;6.30;99.90
52125;DHT22;38119;52.710;6.398;2022-09-21T05:51:12;6.30;99.90
52125;DHT22;38119;52.710;6.398;2022-09-21T06:02:46;6.30;99.90
52125;DHT22;38119;52.710;6.398;2022-09-21T06:04:52;6.30;99.90
52125;DHT22;38119;52.710;6.398;2022-09-21T06:07:20;6.30;99.90
52125;DHT22;38119;52.710;6.398;2022-09-21T06:09:46;6.30;99.90
52125;DHT22;38119;52.710;6.398;2022-09-21T06:12:13;6.30;99.90
52125;DHT22;38119;52.710;6.398;2022-09-21T06:14:39;6.30;99.90
52125;DHT22;38119;52.710;6.398;2022-09-21T06:17:04;6.30;99.90
52125;DHT22;38119;52.710;6.398;2022-09-21T06:19:30;6.40;99.90
52125;DHT22;38119;52.710;6.398;2022-09-21T06:21:56;6.40;99.90
52125;DHT22;38119;52.710;6.398;2022-09-21T06:24:21;6.40;99.90
52125;DHT22;38119;52.710;6.398;2022-09-21T06:26:47;6.40;99.90
52125;DHT22;38119;52.710;6.398;2022-09-21T06:29:12;6.50;99.90
52125;DHT22;38119;52.710;6.398;2022-09-21T06:31:38;6.50;99.90
52125;DHT22;38119;52.710;6.398;2022-09-21T06:34:04;6.50;99.90
52125;DHT22;38119;52.710;6.398;2022-09-21T06:36:29;6.50;99.90
52125;DHT22;38119;52.710;6.398;2022-09-21T06:38:55;6.60;99.90
52125;DHT22;38119;52.710;6.398;2022-09-21T06:41:21;6.60;99.90
52125;DHT22;38119;52.710;6.398;2022-09-21T06:43:46;6.60;99.90
52125;DHT22;38119;52.710;6.398;2022-09-21T06:46:12;6.70;99.90
52125;DHT22;38119;52.710;6.398;2022-09-21T06:48:37;6.50;99.90
52125;DHT22;38119;52.710;6.398;2022-09-21T06:51:04;6.70;99.90
52125;DHT22;38119;52.710;6.398;2022-09-21T06:53:32;6.80;99.90
52125;DHT22;38119;52.710;6.398;2022-09-21T06:56:08;6.90;99.90
52125;DHT22;38119;52.710;6.398;2022-09-21T06:58:35;6.90;99.90
52125;DHT22;38119;52.710;6.398;2022-09-21T07:01:12;7.00;99.90
52125;DHT22;38119;52.710;6.398;2022-09-21T07:03:38;7.00;99.90
52125;DHT22;38119;52.710;6.398;2022-09-21T07:06:05;7.10;99.90
52125;DHT22;38119;52.710;6.398;2022-09-21T07:08:31;7.10;99.90
52125;DHT22;38119;52.710;6.398;2022-09-21T07:10:57;7.20;99.90
52125;DHT22;38119;52.710;6.398;2022-09-21T07:13:24;7.20;99.90
52125;DHT22;38119;52.710;6.398;2022-09-21T07:15:50;7.30;99.90
52125;DHT22;38119;52.710;6.398;2022-09-21T07:18:16;7.40;99.90
52125;DHT22;38119;52.710;6.398;2022-09-21T07:20:41;7.50;99.90
52125;DHT22;38119;52.710;6.398;2022-09-21T07:23:16;7.60;99.90
52125;DHT22;38119;52.710;6.398;2022-09-21T07:25:43;7.70;99.90
52125;DHT22;38119;52.710;6.398;2022-09-21T07:28:09;7.80;99.90
52125;DHT22;38119;52.710;6.398;2022-09-21T07:30:36;7.90;99.90
52125;DHT22;38119;52.710;6.398;2022-09-21T07:33:03;8.00;99.90
52125;DHT22;38119;52.710;6.398;2022-09-21T07:35:29;8.00;99.90
52125;DHT22;38119;52.710;6.398;2022-09-21T07:37:59;8.10;99.90
52125;DHT22;38119;52.710;6.398;2022-09-21T07:40:25;8.20;99.90
52125;DHT22;38119;52.710;6.398;2022-09-21T07:42:51;8.30;99.90
52125;DHT22;38119;52.710;6.398;2022-09-21T07:45:17;8.40;99.90
52125;DHT22;38119;52.710;6.398;2022-09-21T07:47:43;8.50;99.90
52125;DHT22;38119;52.710;6.398;2022-09-21T07:50:09;8.60;99.90
52125;DHT22;38119;52.710;6.398;2022-09-21T07:52:34;8.60;99.90
52125;DHT22;38119;52.710;6.398;2022-09-21T07:55:00;8.70;99.90
52125;DHT22;38119;52.710;6.398;2022-09-21T07:57:26;8.80;99.90
52125;DHT22;38119;52.710;6.398;2022-09-21T08:00:11;8.90;99.90
52125;DHT22;38119;52.710;6.398;2022-09-21T08:02:37;9.00;99.90
52125;DHT22;38119;52.710;6.398;2022-09-21T08:05:02;9.10;99.90
52125;DHT22;38119;52.710;6.398;2022-09-21T08:07:28;9.10;99.90
52125;DHT22;38119;52.710;6.398;2022-09-21T08:09:54;9.20;99.90
52125;DHT22;38119;52.710;6.398;2022-09-21T08:12:19;9.40;99.90
52125;DHT22;38119;52.710;6.398;2022-09-21T08:14:46;9.40;99.90
52125;DHT22;38119;52.710;6.398;2022-09-21T08:17:14;9.50;99.90
52125;DHT22;38119;52.710;6.398;2022-09-21T08:19:40;9.60;99.90
52125;DHT22;38119;52.710;6.398;2022-09-21T08:22:06;9.70;99.90
52125;DHT22;38119;52.710;6.398;2022-09-21T08:24:32;9.80;99.90
52125;DHT22;38119;52.710;6.398;2022-09-21T08:26:58;9.80;99.90
52125;DHT22;38119;52.710;6.398;2022-09-21T08:29:25;9.90;99.90
52125;DHT22;38119;52.710;6.398;2022-09-21T08:31:51;10.00;99.90
52125;DHT22;38119;52.710;6.398;2022-09-21T08:34:18;10.00;99.90
52125;DHT22;38119;52.710;6.398;2022-09-21T08:36:44;10.10;99.90
52125;DHT22;38119;52.710;6.398;2022-09-21T08:39:11;10.10;99.90
52125;DHT22;38119;52.710;6.398;2022-09-21T08:44:24;10.30;99.90
52125;DHT22;38119;52.710;6.398;2022-09-21T08:49:35;10.50;99.90
52125;DHT22;38119;52.710;6.398;2022-09-21T08:52:07;10.50;99.90
52125;DHT22;38119;52.710;6.398;2022-09-21T08:54:55;10.80;99.90
52125;DHT22;38119;52.710;6.398;2022-09-21T08:57:30;10.80;99.90
52125;DHT22;38119;52.710;6.398;2022-09-21T08:59:56;10.90;99.90
52125;DHT22;38119;52.710;6.398;2022-09-21T09:10:32;11.30;99.90
52125;DHT22;38119;52.710;6.398;2022-09-21T09:24:57;11.80;99.90
52125;DHT22;38119;52.710;6.398;2022-09-21T09:27:14;12.00;99.90
52125;DHT22;38119;52.710;6.398;2022-09-21T09:29:57;12.10;99.90
52125;DHT22;38119;52.710;6.398;2022-09-21T09:35:28;12.40;99.90
52125;DHT22;38119;52.710;6.398;2022-09-21T09:49:10;13.50;99.90
52125;DHT22;38119;52.710;6.398;2022-09-21T09:51:38;13.80;99.90
52125;DHT22;38119;52.710;6.398;2022-09-21T09:54:07;14.00;99.90
52125;DHT22;38119;52.710;6.398;2022-09-21T09:56:36;14.10;99.90
52125;DHT22;38119;52.710;6.398;2022-09-21T09:59:04;14.10;99.90
52125;DHT22;38119;52.710;6.398;2022-09-21T10:01:45;14.30;99.90
52125;DHT22;38119;52.710;6.398;2022-09-21T10:04:22;14.50;99.90
52125;DHT22;38119;52.710;6.398;2022-09-21T10:06:48;14.60;99.90
52125;DHT22;38119;52.710;6.398;2022-09-21T10:09:19;14.60;99.90
52125;DHT22;38119;52.710;6.398;2022-09-21T10:11:47;14.70;99.90
52125;DHT22;38119;52.710;6.398;2022-09-21T10:14:18;14.80;99.90
52125;DHT22;38119;52.710;6.398;2022-09-21T10:16:45;14.90;99.90
52125;DHT22;38119;52.710;6.398;2022-09-21T10:19:31;15.00;99.90
52125;DHT22;38119;52.710;6.398;2022-09-21T10:21:58;15.10;99.90
52125;DHT22;38119;52.710;6.398;2022-09-21T10:29:31;15.40;99.90
52125;DHT22;38119;52.710;6.398;2022-09-21T10:34:24;15.60;99.90
52125;DHT22;38119;52.710;6.398;2022-09-21T10:36:52;15.60;99.90
52125;DHT22;38119;52.710;6.398;2022-09-21T10:39:29;15.60;99.90
52125;DHT22;38119;52.710;6.398;2022-09-21T10:42:10;15.60;99.90
52125;DHT22;38119;52.710;6.398;2022-09-21T10:47:35;15.80;99.90
52125;DHT22;38119;52.710;6.398;2022-09-21T10:50:05;15.90;99.90
52125;DHT22;38119;52.710;6.398;2022-09-21T10:52:34;15.90;99.90
52125;DHT22;38119;52.710;6.398;2022-09-21T10:55:01;16.00;99.90
52125;DHT22;38119;52.710;6.398;2022-09-21T10:57:28;16.00;99.90
52125;DHT22;38119;52.710;6.398;2022-09-21T10:59:54;16.20;99.90
52125;DHT22;38119;52.710;6.398;2022-09-21T11:07:36;16.50;99.90
52125;DHT22;38119;52.710;6.398;2022-09-21T11:10:18;16.60;99.90
52125;DHT22;38119;52.710;6.398;2022-09-21T11:13:12;16.70;99.90
52125;DHT22;38119;52.710;6.398;2022-09-21T11:21:50;17.00;99.70
52125;DHT22;38119;52.710;6.398;2022-09-21T11:30:13;17.20;98.20
52125;DHT22;38119;52.710;6.398;2022-09-21T11:33:37;17.30;96.20
52125;DHT22;38119;52.710;6.398;2022-09-21T11:36:01;17.40;97.50
52125;DHT22;38119;52.710;6.398;2022-09-21T11:39:00;17.50;97.40
52125;DHT22;38119;52.710;6.398;2022-09-21T11:41:43;17.50;96.90
52125;DHT22;38119;52.710;6.398;2022-09-21T11:44:32;17.60;96.70
52125;DHT22;38119;52.710;6.398;2022-09-21T11:47:25;17.70;95.80
52125;DHT22;38119;52.710;6.398;2022-09-21T11:52:43;17.80;95.70
52125;DHT22;38119;52.710;6.398;2022-09-21T11:56:17;17.80;96.00
52125;DHT22;38119;52.710;6.398;2022-09-21T11:58:24;17.80;94.70
52125;DHT22;38119;52.710;6.398;2022-09-21T12:07:06;17.40;94.70
52125;DHT22;38119;52.710;6.398;2022-09-21T12:15:22;17.10;95.10
52125;DHT22;38119;52.710;6.398;2022-09-21T12:18:08;17.30;96.20
52125;DHT22;38119;52.710;6.398;2022-09-21T12:20:46;17.40;95.10
52125;DHT22;38119;52.710;6.398;2022-09-21T12:26:04;17.50;94.40
52125;DHT22;38119;52.710;6.398;2022-09-21T12:28:35;17.60;94.50
52125;DHT22;38119;52.710;6.398;2022-09-21T12:31:35;17.70;95.30
52125;DHT22;38119;52.710;6.398;2022-09-21T12:34:16;17.90;95.50
52125;DHT22;38119;52.710;6.398;2022-09-21T12:37:15;17.90;94.30
52125;DHT22;38119;52.710;6.398;2022-09-21T12:39:57;17.90;93.20
52125;DHT22;38119;52.710;6.398;2022-09-21T12:45:02;17.80;91.60
52125;DHT22;38119;52.710;6.398;2022-09-21T12:50:46;17.80;91.20
52125;DHT22;38119;52.710;6.398;2022-09-21T12:53:22;17.80;92.10
52125;DHT22;38119;52.710;6.398;2022-09-21T13:09:27;18.20;93.90
52125;DHT22;38119;52.710;6.398;2022-09-21T13:12:00;18.20;94.00
52125;DHT22;38119;52.710;6.398;2022-09-21T13:14:32;18.30;93.60
52125;DHT22;38119;52.710;6.398;2022-09-21T13:17:02;18.40;93.70
52125;DHT22;38119;52.710;6.398;2022-09-21T13:19:32;18.50;93.70
52125;DHT22;38119;52.710;6.398;2022-09-21T13:22:24;18.50;93.80
52125;DHT22;38119;52.710;6.398;2022-09-21T13:25:26;18.60;93.50
52125;DHT22;38119;52.710;6.398;2022-09-21T13:30:41;18.70;93.50
52125;DHT22;38119;52.710;6.398;2022-09-21T13:36:04;18.70;92.70
52125;DHT22;38119;52.710;6.398;2022-09-21T13:52:03;18.60;91.00
52125;DHT22;38119;52.710;6.398;2022-09-21T13:54:36;18.70;91.10
52125;DHT22;38119;52.710;6.398;2022-09-21T13:59:30;18.60;90.30
52125;DHT22;38119;52.710;6.398;2022-09-21T14:01:57;18.60;90.30
52125;DHT22;38119;52.710;6.398;2022-09-21T14:04:27;18.60;89.30
52125;DHT22;38119;52.710;6.398;2022-09-21T14:06:55;18.50;85.90
52125;DHT22;38119;52.710;6.398;2022-09-21T14:09:28;18.40;84.70
52125;DHT22;38119;52.710;6.398;2022-09-21T14:11:59;18.30;85.70
52125;DHT22;38119;52.710;6.398;2022-09-21T14:14:32;18.30;87.30
52125;DHT22;38119;52.710;6.398;2022-09-21T14:17:00;18.30;87.50
52125;DHT22;38119;52.710;6.398;2022-09-21T14:24:47;18.20;86.10
52125;DHT22;38119;52.710;6.398;2022-09-21T14:27:35;18.20;86.70
52125;DHT22;38119;52.710;6.398;2022-09-21T14:30:03;18.20;87.00
52125;DHT22;38119;52.710;6.398;2022-09-21T14:32:40;18.10;86.10
52125;DHT22;38119;52.710;6.398;2022-09-21T14:35:12;18.10;84.30
52125;DHT22;38119;52.710;6.398;2022-09-21T14:37:48;18.00;85.70
52125;DHT22;38119;52.710;6.398;2022-09-21T14:42:46;18.00;85.40
52125;DHT22;38119;52.710;6.398;2022-09-21T14:45:17;18.00;85.50
52125;DHT22;38119;52.710;6.398;2022-09-21T14:50:24;18.00;86.40
52125;DHT22;38119;52.710;6.398;2022-09-21T15:10:20;17.30;87.60
52125;DHT22;38119;52.710;6.398;2022-09-21T15:18:22;16.70;89.60
52125;DHT22;38119;52.710;6.398;2022-09-21T15:20:58;16.60;89.70
52125;DHT22;38119;52.710;6.398;2022-09-21T15:23:38;16.50;90.10
52125;DHT22;38119;52.710;6.398;2022-09-21T15:26:14;16.40;90.50
52125;DHT22;38119;52.710;6.398;2022-09-21T15:28:47;16.20;91.60
52125;DHT22;38119;52.710;6.398;2022-09-21T15:31:15;16.10;92.40
52125;DHT22;38119;52.710;6.398;2022-09-21T15:33:42;16.00;93.20
52125;DHT22;38119;52.710;6.398;2022-09-21T15:36:11;16.00;94.40
52125;DHT22;38119;52.710;6.398;2022-09-21T15:38:37;15.90;95.70
52125;DHT22;38119;52.710;6.398;2022-09-21T15:41:04;15.80;96.50
52125;DHT22;38119;52.710;6.398;2022-09-21T15:43:31;15.70;97.30
52125;DHT22;38119;52.710;6.398;2022-09-21T15:46:04;15.70;98.00
52125;DHT22;38119;52.710;6.398;2022-09-21T15:48:33;15.60;98.90
52125;DHT22;38119;52.710;6.398;2022-09-21T15:53:47;15.40;99.90
52125;DHT22;38119;52.710;6.398;2022-09-21T15:56:24;15.40;99.90
52125;DHT22;38119;52.710;6.398;2022-09-21T15:58:51;15.40;99.90
52125;DHT22;38119;52.710;6.398;2022-09-21T16:01:22;15.50;99.90
52125;DHT22;38119;52.710;6.398;2022-09-21T16:04:01;15.50;99.90
52125;DHT22;38119;52.710;6.398;2022-09-21T16:06:39;15.60;99.90
52125;DHT22;38119;52.710;6.398;2022-09-21T16:11:51;15.60;99.50
52125;DHT22;38119;52.710;6.398;2022-09-21T16:14:18;15.70;99.40
52125;DHT22;38119;52.710;6.398;2022-09-21T16:20:04;15.90;97.10
52125;DHT22;38119;52.710;6.398;2022-09-21T16:22:40;15.90;98.20
52125;DHT22;38119;52.710;6.398;2022-09-21T16:25:24;15.90;98.10
52125;DHT22;38119;52.710;6.398;2022-09-21T16:28:02;15.90;98.50
52125;DHT22;38119;52.710;6.398;2022-09-21T16:30:38;15.90;98.60
52125;DHT22;38119;52.710;6.398;2022-09-21T16:36:32;16.00;98.20
52125;DHT22;38119;52.710;6.398;2022-09-21T16:38:50;15.90;98.20
52125;DHT22;38119;52.710;6.398;2022-09-21T16:41:18;15.90;98.90
52125;DHT22;38119;52.710;6.398;2022-09-21T16:43:44;15.80;99.10
52125;DHT22;38119;52.710;6.398;2022-09-21T16:46:10;15.80;98.60
52125;DHT22;38119;52.710;6.398;2022-09-21T16:48:36;15.70;98.20
52125;DHT22;38119;52.710;6.398;2022-09-21T16:51:02;15.70;97.40
52125;DHT22;38119;52.710;6.398;2022-09-21T16:53:28;15.60;97.20
52125;DHT22;38119;52.710;6.398;2022-09-21T16:55:54;15.50;97.50
52125;DHT22;38119;52.710;6.398;2022-09-21T16:58:20;15.50;97.50
52125;DHT22;38119;52.710;6.398;2022-09-21T17:00:48;15.50;98.40
52125;DHT22;38119;52.710;6.398;2022-09-21T17:03:16;15.40;99.40
52125;DHT22;38119;52.710;6.398;2022-09-21T17:05:41;15.30;99.90
52125;DHT22;38119;52.710;6.398;2022-09-21T17:08:09;15.20;99.90
52125;DHT22;38119;52.710;6.398;2022-09-21T17:10:40;15.10;99.90
52125;DHT22;38119;52.710;6.398;2022-09-21T17:13:09;15.00;99.90
52125;DHT22;38119;52.710;6.398;2022-09-21T17:15:37;14.90;99.90
52125;DHT22;38119;52.710;6.398;2022-09-21T17:18:05;14.80;99.90
52125;DHT22;38119;52.710;6.398;2022-09-21T17:20:39;14.70;99.90
52125;DHT22;38119;52.710;6.398;2022-09-21T17:23:06;14.60;99.90
52125;DHT22;38119;52.710;6.398;2022-09-21T17:25:33;14.50;99.90
52125;DHT22;38119;52.710;6.398;2022-09-21T17:28:02;14.40;99.90
52125;DHT22;38119;52.710;6.398;2022-09-21T17:30:31;14.30;99.90
52125;DHT22;38119;52.710;6.398;2022-09-21T17:32:56;14.20;99.90
52125;DHT22;38119;52.710;6.398;2022-09-21T17:35:35;14.10;99.90
52125;DHT22;38119;52.710;6.398;2022-09-21T17:38:03;14.00;99.90
52125;DHT22;38119;52.710;6.398;2022-09-21T17:40:29;13.90;99.90
52125;DHT22;38119;52.710;6.398;2022-09-21T17:43:15;13.90;99.90
52125;DHT22;38119;52.710;6.398;2022-09-21T17:48:22;13.70;99.90
52125;DHT22;38119;52.710;6.398;2022-09-21T17:50:48;13.60;99.90
52125;DHT22;38119;52.710;6.398;2022-09-21T17:53:14;13.60;99.90
52125;DHT22;38119;52.710;6.398;2022-09-21T17:59:04;13.40;99.90
52125;DHT22;38119;52.710;6.398;2022-09-21T18:01:35;13.30;99.90
52125;DHT22;38119;52.710;6.398;2022-09-21T18:04:03;13.20;99.90
52125;DHT22;38119;52.710;6.398;2022-09-21T18:06:29;13.20;99.90
52125;DHT22;38119;52.710;6.398;2022-09-21T18:08:56;13.10;99.90
52125;DHT22;38119;52.710;6.398;2022-09-21T18:17:07;12.90;99.90
52125;DHT22;38119;52.710;6.398;2022-09-21T18:25:22;12.70;99.90
52125;DHT22;38119;52.710;6.398;2022-09-21T18:27:50;12.70;99.90
52125;DHT22;38119;52.710;6.398;2022-09-21T18:30:17;12.60;99.90
52125;DHT22;38119;52.710;6.398;2022-09-21T18:33:04;12.60;99.90
52125;DHT22;38119;52.710;6.398;2022-09-21T18:41:20;12.30;99.90
52125;DHT22;38119;52.710;6.398;2022-09-21T18:44:02;12.20;99.90
52125;DHT22;38119;52.710;6.398;2022-09-21T18:46:50;12.20;99.90
52125;DHT22;38119;52.710;6.398;2022-09-21T18:50:07;12.20;99.90
52125;DHT22;38119;52.710;6.398;2022-09-21T18:57:54;12.00;99.90
52125;DHT22;38119;52.710;6.398;2022-09-21T19:00:20;12.00;99.90
52125;DHT22;38119;52.710;6.398;2022-09-21T19:02:46;12.00;99.90
52125;DHT22;38119;52.710;6.398;2022-09-21T19:05:12;12.00;99.90
52125;DHT22;38119;52.710;6.398;2022-09-21T19:08:23;11.90;99.90
52125;DHT22;38119;52.710;6.398;2022-09-21T19:11:03;11.80;99.90
52125;DHT22;38119;52.710;6.398;2022-09-21T19:14:26;11.80;99.90
52125;DHT22;38119;52.710;6.398;2022-09-21T19:19:32;11.70;99.90
52125;DHT22;38119;52.710;6.398;2022-09-21T19:22:02;11.60;99.90
52125;DHT22;38119;52.710;6.398;2022-09-21T19:25:03;11.60;99.90
52125;DHT22;38119;52.710;6.398;2022-09-21T19:27:42;11.60;99.90
52125;DHT22;38119;52.710;6.398;2022-09-21T19:30:13;11.50;99.90
52125;DHT22;38119;52.710;6.398;2022-09-21T19:32:45;11.50;99.90
52125;DHT22;38119;52.710;6.398;2022-09-21T19:37:44;11.40;99.90
52125;DHT22;38119;52.710;6.398;2022-09-21T19:40:14;11.40;99.90
52125;DHT22;38119;52.710;6.398;2022-09-21T19:45:25;11.30;99.90
52125;DHT22;38119;52.710;6.398;2022-09-21T19:47:53;11.30;99.90
52125;DHT22;38119;52.710;6.398;2022-09-21T19:50:32;11.20;99.90
52125;DHT22;38119;52.710;6.398;2022-09-21T19:53:01;11.20;99.90